Terminal Aerodrome Forecast
Issued by NWS

Home | Current Version | Previous Version | Text Only | Print | Product List | Glossary On
Versions: 1 2 3 4 5 6 7 8 9 10 11 12 13 14 15 16 17 18 19
000
FTUS42 KTBW 302300
TAFPIE
TAF
KPIE 302338Z 0100/0124 VRB03KT P6SM VCSH SCT020 SCT080 BKN250
      TEMPO 0100/0103 4SM SHRA BKN020
     FM010300 VRB03KT P6SM SCT015 SCT080
     FM011000 VRB03KT P6SM VCSH SCT015 SCT080
     FM011500 25006KT P6SM VCTS SCT025CB BKN080
     FM012000 28007KT P6SM SCT035 SCT080 BKN250=

USA.gov is the U.S. government's official web portal to all federal, state and local government web resources and services.